Terminal Aerodrome Forecast
Issued by NWS

Home | Current Version | Previous Version | Text Only | Print | Product List | Glossary On
Versions: 1 2 3 4 5 6 7 8 9 10 11 12 13 14 15 16 17 18 19 20 21 22 23 24 25 26 27 28 29 30 31 32 33 34 35 36 37 38 39 40 41 42 43 44 45 46
074
FTUS45 KBYZ 172331
TAFLVM
TAF
KLVM 172331Z 1800/1824 21035G47KT P6SM VCSH SCT050 OVC080
     FM180300 21040G52KT 3SM -SHSN SCT015 OVC030
     FM180900 27015G25KT 3SM -SN BR SCT020 BKN040
     FM181500 09015G25KT 3SM -SN BR OVC015=

USA.gov is the U.S. government's official web portal to all federal, state and local government web resources and services.